Terminal Aerodrome Forecast
Issued by NWS Blacksburg, VA

Home | Current Version | Previous Version | Text Only | Print | Product List | Glossary On
Versions: 1 2 3 4 5 6 7 8 9 10 11 12 13 14 15 16 17 18 19 20 21 22 23 24
000
FTUS41 KRNK 250520
TAFLYH
TAF
KLYH 250520Z 2506/2606 01005KT P6SM FEW080
     FM251500 15004KT P6SM OVC120
     FM251900 19006KT P6SM SCT070
     FM252200 20008KT P6SM BKN070
     FM260100 VRB03KT P6SM BKN120=

USA.gov is the U.S. government's official web portal to all federal, state and local government web resources and services.